sensor_id;sensor_type;location;lat;lon;timestamp;temperature;humidity
9987;DHT22;5033;46.310;11.214;2023-04-16T00:02:20;9.10;99.90
9987;DHT22;5033;46.310;11.214;2023-04-16T00:04:47;9.10;99.90
9987;DHT22;5033;46.310;11.214;2023-04-16T00:07:16;9.10;99.90
9987;DHT22;5033;46.310;11.214;2023-04-16T00:09:43;9.10;99.90
9987;DHT22;5033;46.310;11.214;2023-04-16T00:12:11;9.10;99.90
9987;DHT22;5033;46.310;11.214;2023-04-16T00:14:38;9.00;99.90
9987;DHT22;5033;46.310;11.214;2023-04-16T00:17:04;9.00;99.90
9987;DHT22;5033;46.310;11.214;2023-04-16T00:19:31;9.00;99.90
9987;DHT22;5033;46.310;11.214;2023-04-16T00:21:58;9.00;99.90
9987;DHT22;5033;46.310;11.214;2023-04-16T00:24:27;8.90;99.90
9987;DHT22;5033;46.310;11.214;2023-04-16T00:26:53;8.90;99.90
9987;DHT22;5033;46.310;11.214;2023-04-16T00:29:21;8.90;99.90
9987;DHT22;5033;46.310;11.214;2023-04-16T00:31:48;8.90;99.90
9987;DHT22;5033;46.310;11.214;2023-04-16T00:34:15;8.90;99.90
9987;DHT22;5033;46.310;11.214;2023-04-16T00:36:42;8.90;99.90
9987;DHT22;5033;46.310;11.214;2023-04-16T00:39:09;8.80;99.90
9987;DHT22;5033;46.310;11.214;2023-04-16T00:41:38;8.80;99.90
9987;DHT22;5033;46.310;11.214;2023-04-16T00:44:05;8.80;99.90
9987;DHT22;5033;46.310;11.214;2023-04-16T00:46:32;8.70;99.90
9987;DHT22;5033;46.310;11.214;2023-04-16T00:49:02;8.60;99.90
9987;DHT22;5033;46.310;11.214;2023-04-16T00:51:30;8.60;99.90
9987;DHT22;5033;46.310;11.214;2023-04-16T00:53:57;8.50;99.90
9987;DHT22;5033;46.310;11.214;2023-04-16T00:56:24;8.50;99.90
9987;DHT22;5033;46.310;11.214;2023-04-16T00:58:53;8.40;99.90
9987;DHT22;5033;46.310;11.214;2023-04-16T01:01:20;8.40;99.90
9987;DHT22;5033;46.310;11.214;2023-04-16T01:03:48;8.40;99.90
9987;DHT22;5033;46.310;11.214;2023-04-16T01:06:16;8.40;99.90
9987;DHT22;5033;46.310;11.214;2023-04-16T01:08:46;8.40;99.90
9987;DHT22;5033;46.310;11.214;2023-04-16T01:11:14;8.40;99.90
9987;DHT22;5033;46.310;11.214;2023-04-16T01:13:41;8.40;99.90
9987;DHT22;5033;46.310;11.214;2023-04-16T01:16:10;8.40;99.90
9987;DHT22;5033;46.310;11.214;2023-04-16T01:18:38;8.40;99.90
9987;DHT22;5033;46.310;11.214;2023-04-16T01:21:06;8.40;99.90
9987;DHT22;5033;46.310;11.214;2023-04-16T01:23:33;8.30;99.90
9987;DHT22;5033;46.310;11.214;2023-04-16T01:26:00;8.30;99.90
9987;DHT22;5033;46.310;11.214;2023-04-16T01:28:27;8.30;99.90
9987;DHT22;5033;46.310;11.214;2023-04-16T01:30:54;8.30;99.90
9987;DHT22;5033;46.310;11.214;2023-04-16T01:33:21;8.30;99.90
9987;DHT22;5033;46.310;11.214;2023-04-16T01:35:48;8.30;99.90
9987;DHT22;5033;46.310;11.214;2023-04-16T01:38:16;8.30;99.90
9987;DHT22;5033;46.310;11.214;2023-04-16T01:40:43;8.30;99.90
9987;DHT22;5033;46.310;11.214;2023-04-16T01:43:10;8.40;99.90
9987;DHT22;5033;46.310;11.214;2023-04-16T01:45:37;8.30;99.90
9987;DHT22;5033;46.310;11.214;2023-04-16T01:48:04;8.40;99.90
9987;DHT22;5033;46.310;11.214;2023-04-16T01:50:31;8.40;99.90
9987;DHT22;5033;46.310;11.214;2023-04-16T01:52:59;8.30;99.90
9987;DHT22;5033;46.310;11.214;2023-04-16T01:55:27;8.30;99.90
9987;DHT22;5033;46.310;11.214;2023-04-16T01:57:54;8.30;99.90
9987;DHT22;5033;46.310;11.214;2023-04-16T02:00:21;8.30;99.90
9987;DHT22;5033;46.310;11.214;2023-04-16T02:02:48;8.20;99.90
9987;DHT22;5033;46.310;11.214;2023-04-16T02:05:15;8.20;99.90
9987;DHT22;5033;46.310;11.214;2023-04-16T02:07:42;8.20;99.90
9987;DHT22;5033;46.310;11.214;2023-04-16T02:10:09;8.20;99.90
9987;DHT22;5033;46.310;11.214;2023-04-16T02:12:38;8.10;99.90
9987;DHT22;5033;46.310;11.214;2023-04-16T02:15:05;8.20;99.90
9987;DHT22;5033;46.310;11.214;2023-04-16T02:17:32;8.10;99.90
9987;DHT22;5033;46.310;11.214;2023-04-16T02:19:59;8.10;99.90
9987;DHT22;5033;46.310;11.214;2023-04-16T02:22:28;8.00;99.90
9987;DHT22;5033;46.310;11.214;2023-04-16T02:24:55;8.00;99.90
9987;DHT22;5033;46.310;11.214;2023-04-16T02:27:21;7.90;99.90
9987;DHT22;5033;46.310;11.214;2023-04-16T02:29:50;7.90;99.90
9987;DHT22;5033;46.310;11.214;2023-04-16T02:32:17;7.90;99.90
9987;DHT22;5033;46.310;11.214;2023-04-16T02:34:44;7.90;99.90
9987;DHT22;5033;46.310;11.214;2023-04-16T02:37:10;7.90;99.90
9987;DHT22;5033;46.310;11.214;2023-04-16T02:39:39;7.90;99.90
9987;DHT22;5033;46.310;11.214;2023-04-16T02:42:07;7.90;99.90
9987;DHT22;5033;46.310;11.214;2023-04-16T02:44:34;7.90;99.90
9987;DHT22;5033;46.310;11.214;2023-04-16T02:47:02;7.90;99.90
9987;DHT22;5033;46.310;11.214;2023-04-16T02:49:29;7.90;99.90
9987;DHT22;5033;46.310;11.214;2023-04-16T02:51:56;7.90;99.90
9987;DHT22;5033;46.310;11.214;2023-04-16T02:54:23;7.90;99.90
9987;DHT22;5033;46.310;11.214;2023-04-16T02:56:50;7.90;99.90
9987;DHT22;5033;46.310;11.214;2023-04-16T02:59:17;7.90;99.90
9987;DHT22;5033;46.310;11.214;2023-04-16T03:01:44;7.90;99.90
9987;DHT22;5033;46.310;11.214;2023-04-16T03:04:12;7.90;99.90
9987;DHT22;5033;46.310;11.214;2023-04-16T03:06:39;7.90;99.90
9987;DHT22;5033;46.310;11.214;2023-04-16T03:09:06;7.90;99.90
9987;DHT22;5033;46.310;11.214;2023-04-16T03:11:33;7.90;99.90
9987;DHT22;5033;46.310;11.214;2023-04-16T03:14:00;8.00;99.90
9987;DHT22;5033;46.310;11.214;2023-04-16T03:16:27;8.10;99.90
9987;DHT22;5033;46.310;11.214;2023-04-16T03:18:54;8.10;99.90
9987;DHT22;5033;46.310;11.214;2023-04-16T03:21:22;8.00;99.90
9987;DHT22;5033;46.310;11.214;2023-04-16T03:23:49;8.00;99.90
9987;DHT22;5033;46.310;11.214;2023-04-16T03:26:17;8.00;99.90
9987;DHT22;5033;46.310;11.214;2023-04-16T03:28:45;7.90;99.90
9987;DHT22;5033;46.310;11.214;2023-04-16T03:31:12;7.90;99.90
9987;DHT22;5033;46.310;11.214;2023-04-16T03:33:39;7.90;99.90
9987;DHT22;5033;46.310;11.214;2023-04-16T03:36:06;7.90;99.90
9987;DHT22;5033;46.310;11.214;2023-04-16T03:38:35;7.90;99.90
9987;DHT22;5033;46.310;11.214;2023-04-16T03:41:01;7.90;99.90
9987;DHT22;5033;46.310;11.214;2023-04-16T03:43:28;7.80;99.90
9987;DHT22;5033;46.310;11.214;2023-04-16T03:45:55;7.80;99.90
9987;DHT22;5033;46.310;11.214;2023-04-16T03:48:22;7.80;99.90
9987;DHT22;5033;46.310;11.214;2023-04-16T03:50:49;7.80;99.90
9987;DHT22;5033;46.310;11.214;2023-04-16T03:53:16;7.80;99.90
9987;DHT22;5033;46.310;11.214;2023-04-16T03:55:44;7.80;99.90
9987;DHT22;5033;46.310;11.214;2023-04-16T03:58:14;7.80;99.90
9987;DHT22;5033;46.310;11.214;2023-04-16T04:00:41;7.70;99.90
9987;DHT22;5033;46.310;11.214;2023-04-16T04:03:08;7.70;99.90
9987;DHT22;5033;46.310;11.214;2023-04-16T04:05:36;7.70;99.90
9987;DHT22;5033;46.310;11.214;2023-04-16T04:08:03;7.60;99.90
9987;DHT22;5033;46.310;11.214;2023-04-16T04:10:31;7.50;99.90
9987;DHT22;5033;46.310;11.214;2023-04-16T04:12:59;7.50;99.90
9987;DHT22;5033;46.310;11.214;2023-04-16T04:15:26;7.30;99.90
9987;DHT22;5033;46.310;11.214;2023-04-16T04:17:53;7.30;99.90
9987;DHT22;5033;46.310;11.214;2023-04-16T04:20:20;7.20;99.90
9987;DHT22;5033;46.310;11.214;2023-04-16T04:22:47;7.20;99.90
9987;DHT22;5033;46.310;11.214;2023-04-16T04:25:15;7.20;99.90
9987;DHT22;5033;46.310;11.214;2023-04-16T04:27:43;7.20;99.90
9987;DHT22;5033;46.310;11.214;2023-04-16T04:30:11;7.20;99.90
9987;DHT22;5033;46.310;11.214;2023-04-16T04:32:38;7.20;99.90
9987;DHT22;5033;46.310;11.214;2023-04-16T04:35:06;7.20;99.90
9987;DHT22;5033;46.310;11.214;2023-04-16T04:37:33;7.20;99.90
9987;DHT22;5033;46.310;11.214;2023-04-16T04:40:00;7.20;99.90
9987;DHT22;5033;46.310;11.214;2023-04-16T04:42:27;7.20;99.90
9987;DHT22;5033;46.310;11.214;2023-04-16T04:44:54;7.20;99.90
9987;DHT22;5033;46.310;11.214;2023-04-16T04:47:22;7.30;99.90
9987;DHT22;5033;46.310;11.214;2023-04-16T04:49:49;7.20;99.90
9987;DHT22;5033;46.310;11.214;2023-04-16T04:52:16;7.20;99.90
9987;DHT22;5033;46.310;11.214;2023-04-16T04:54:45;7.20;99.90
9987;DHT22;5033;46.310;11.214;2023-04-16T04:57:11;7.20;99.90
9987;DHT22;5033;46.310;11.214;2023-04-16T04:59:39;7.10;99.90
9987;DHT22;5033;46.310;11.214;2023-04-16T05:02:06;7.10;99.90
9987;DHT22;5033;46.310;11.214;2023-04-16T05:04:34;7.10;99.90
9987;DHT22;5033;46.310;11.214;2023-04-16T05:07:01;7.20;99.90
9987;DHT22;5033;46.310;11.214;2023-04-16T05:09:28;7.20;99.90
9987;DHT22;5033;46.310;11.214;2023-04-16T05:11:55;7.20;99.90
9987;DHT22;5033;46.310;11.214;2023-04-16T05:14:22;7.10;99.90
9987;DHT22;5033;46.310;11.214;2023-04-16T05:16:49;7.10;99.90
9987;DHT22;5033;46.310;11.214;2023-04-16T05:19:17;7.10;99.90
9987;DHT22;5033;46.310;11.214;2023-04-16T05:21:45;7.10;99.90
9987;DHT22;5033;46.310;11.214;2023-04-16T05:24:12;7.20;99.90
9987;DHT22;5033;46.310;11.214;2023-04-16T05:26:39;7.40;99.90
9987;DHT22;5033;46.310;11.214;2023-04-16T05:29:05;7.40;99.90
9987;DHT22;5033;46.310;11.214;2023-04-16T05:31:32;7.50;99.90
9987;DHT22;5033;46.310;11.214;2023-04-16T05:33:59;7.50;99.90
9987;DHT22;5033;46.310;11.214;2023-04-16T05:36:26;7.60;99.90
9987;DHT22;5033;46.310;11.214;2023-04-16T05:38:54;7.60;99.90
9987;DHT22;5033;46.310;11.214;2023-04-16T05:41:21;7.70;99.90
9987;DHT22;5033;46.310;11.214;2023-04-16T05:43:48;7.70;99.90
9987;DHT22;5033;46.310;11.214;2023-04-16T05:46:15;7.80;99.90
9987;DHT22;5033;46.310;11.214;2023-04-16T05:48:42;7.90;99.90
9987;DHT22;5033;46.310;11.214;2023-04-16T05:51:09;7.90;99.90
9987;DHT22;5033;46.310;11.214;2023-04-16T05:53:36;8.00;99.90
9987;DHT22;5033;46.310;11.214;2023-04-16T05:56:05;8.00;99.90
9987;DHT22;5033;46.310;11.214;2023-04-16T05:58:32;8.00;99.90
9987;DHT22;5033;46.310;11.214;2023-04-16T06:00:59;8.10;99.90
9987;DHT22;5033;46.310;11.214;2023-04-16T06:03:26;8.30;99.90
9987;DHT22;5033;46.310;11.214;2023-04-16T06:05:53;8.40;99.90
9987;DHT22;5033;46.310;11.214;2023-04-16T06:08:20;8.60;99.90
9987;DHT22;5033;46.310;11.214;2023-04-16T06:10:47;8.80;99.90
9987;DHT22;5033;46.310;11.214;2023-04-16T06:13:16;9.00;99.90
9987;DHT22;5033;46.310;11.214;2023-04-16T06:15:43;9.10;99.90
9987;DHT22;5033;46.310;11.214;2023-04-16T06:18:10;9.20;99.90
9987;DHT22;5033;46.310;11.214;2023-04-16T06:20:37;9.40;99.90
9987;DHT22;5033;46.310;11.214;2023-04-16T06:23:04;9.70;99.90
9987;DHT22;5033;46.310;11.214;2023-04-16T06:25:31;10.50;99.90
9987;DHT22;5033;46.310;11.214;2023-04-16T06:27:57;11.30;99.90
9987;DHT22;5033;46.310;11.214;2023-04-16T06:30:26;12.00;99.90
9987;DHT22;5033;46.310;11.214;2023-04-16T06:32:53;12.40;99.90
9987;DHT22;5033;46.310;11.214;2023-04-16T06:35:20;12.60;99.90
9987;DHT22;5033;46.310;11.214;2023-04-16T06:37:47;12.90;99.90
9987;DHT22;5033;46.310;11.214;2023-04-16T06:40:14;13.30;99.90
9987;DHT22;5033;46.310;11.214;2023-04-16T06:42:41;13.20;99.90
9987;DHT22;5033;46.310;11.214;2023-04-16T06:45:09;13.30;99.90
9987;DHT22;5033;46.310;11.214;2023-04-16T06:47:37;13.60;99.90
9987;DHT22;5033;46.310;11.214;2023-04-16T06:50:05;13.90;99.90
9987;DHT22;5033;46.310;11.214;2023-04-16T06:52:32;13.80;99.90
9987;DHT22;5033;46.310;11.214;2023-04-16T06:54:59;13.80;99.90
9987;DHT22;5033;46.310;11.214;2023-04-16T06:57:26;13.60;99.90
9987;DHT22;5033;46.310;11.214;2023-04-16T06:59:53;13.40;99.90
9987;DHT22;5033;46.310;11.214;2023-04-16T07:02:20;13.50;99.90
9987;DHT22;5033;46.310;11.214;2023-04-16T07:04:48;13.60;99.90
9987;DHT22;5033;46.310;11.214;2023-04-16T07:07:16;13.70;99.90
9987;DHT22;5033;46.310;11.214;2023-04-16T07:09:43;14.00;99.90
9987;DHT22;5033;46.310;11.214;2023-04-16T07:12:10;14.20;99.90
9987;DHT22;5033;46.310;11.214;2023-04-16T07:14:37;14.50;99.90
9987;DHT22;5033;46.310;11.214;2023-04-16T07:17:04;14.60;99.90
9987;DHT22;5033;46.310;11.214;2023-04-16T07:19:31;14.90;99.90
9987;DHT22;5033;46.310;11.214;2023-04-16T07:22:00;15.00;99.90
9987;DHT22;5033;46.310;11.214;2023-04-16T07:24:27;14.90;99.90
9987;DHT22;5033;46.310;11.214;2023-04-16T07:26:54;15.00;99.90
9987;DHT22;5033;46.310;11.214;2023-04-16T07:29:20;15.10;99.90
9987;DHT22;5033;46.310;11.214;2023-04-16T07:31:48;15.10;99.90
9987;DHT22;5033;46.310;11.214;2023-04-16T07:34:15;15.30;99.90
9987;DHT22;5033;46.310;11.214;2023-04-16T07:36:42;15.40;99.90
9987;DHT22;5033;46.310;11.214;2023-04-16T07:39:10;15.30;99.90
9987;DHT22;5033;46.310;11.214;2023-04-16T07:41:37;15.40;99.90
9987;DHT22;5033;46.310;11.214;2023-04-16T07:44:05;15.60;99.90
9987;DHT22;5033;46.310;11.214;2023-04-16T07:46:32;16.00;99.90
9987;DHT22;5033;46.310;11.214;2023-04-16T07:48:59;16.20;99.90
9987;DHT22;5033;46.310;11.214;2023-04-16T07:51:26;16.50;99.90
9987;DHT22;5033;46.310;11.214;2023-04-16T07:53:53;16.40;99.90
9987;DHT22;5033;46.310;11.214;2023-04-16T07:56:21;16.10;99.90
9987;DHT22;5033;46.310;11.214;2023-04-16T07:58:48;16.00;99.90
9987;DHT22;5033;46.310;11.214;2023-04-16T08:01:15;15.90;99.90
9987;DHT22;5033;46.310;11.214;2023-04-16T08:03:42;15.60;99.90
9987;DHT22;5033;46.310;11.214;2023-04-16T08:06:09;15.40;99.90
9987;DHT22;5033;46.310;11.214;2023-04-16T08:08:36;15.40;99.90
9987;DHT22;5033;46.310;11.214;2023-04-16T08:11:03;15.30;99.90
9987;DHT22;5033;46.310;11.214;2023-04-16T08:13:31;15.40;99.90
9987;DHT22;5033;46.310;11.214;2023-04-16T08:15:58;15.80;99.90
9987;DHT22;5033;46.310;11.214;2023-04-16T08:18:25;16.10;99.90
9987;DHT22;5033;46.310;11.214;2023-04-16T08:20:52;16.40;99.90
9987;DHT22;5033;46.310;11.214;2023-04-16T08:23:19;16.50;99.90
9987;DHT22;5033;46.310;11.214;2023-04-16T08:25:46;16.50;99.90
9987;DHT22;5033;46.310;11.214;2023-04-16T08:28:13;16.40;99.90
9987;DHT22;5033;46.310;11.214;2023-04-16T08:30:42;16.50;99.90
9987;DHT22;5033;46.310;11.214;2023-04-16T08:33:10;16.60;99.90
9987;DHT22;5033;46.310;11.214;2023-04-16T08:35:38;17.00;99.90
9987;DHT22;5033;46.310;11.214;2023-04-16T08:38:05;17.20;99.90
9987;DHT22;5033;46.310;11.214;2023-04-16T08:40:34;17.50;99.90
9987;DHT22;5033;46.310;11.214;2023-04-16T08:43:06;17.50;99.90
9987;DHT22;5033;46.310;11.214;2023-04-16T08:45:35;17.50;99.90
9987;DHT22;5033;46.310;11.214;2023-04-16T08:48:05;17.60;99.90
9987;DHT22;5033;46.310;11.214;2023-04-16T08:50:33;17.40;99.50
9987;DHT22;5033;46.310;11.214;2023-04-16T08:53:04;17.60;99.40
9987;DHT22;5033;46.310;11.214;2023-04-16T08:55:35;17.40;98.30
9987;DHT22;5033;46.310;11.214;2023-04-16T08:58:07;17.20;99.10
9987;DHT22;5033;46.310;11.214;2023-04-16T09:00:36;17.10;98.80
9987;DHT22;5033;46.310;11.214;2023-04-16T09:03:07;17.60;99.90
9987;DHT22;5033;46.310;11.214;2023-04-16T09:05:35;17.80;98.80
9987;DHT22;5033;46.310;11.214;2023-04-16T09:08:04;17.70;97.90
9987;DHT22;5033;46.310;11.214;2023-04-16T09:10:32;17.50;99.00
9987;DHT22;5033;46.310;11.214;2023-04-16T09:12:59;17.50;97.70
9987;DHT22;5033;46.310;11.214;2023-04-16T09:15:26;17.50;98.10
9987;DHT22;5033;46.310;11.214;2023-04-16T09:17:54;17.40;97.90
9987;DHT22;5033;46.310;11.214;2023-04-16T09:20:23;17.50;98.40
9987;DHT22;5033;46.310;11.214;2023-04-16T09:22:50;17.60;98.40
9987;DHT22;5033;46.310;11.214;2023-04-16T09:25:19;17.50;98.20
9987;DHT22;5033;46.310;11.214;2023-04-16T09:27:48;17.50;98.20
9987;DHT22;5033;46.310;11.214;2023-04-16T09:30:20;17.60;98.20
9987;DHT22;5033;46.310;11.214;2023-04-16T09:32:48;17.80;97.10
9987;DHT22;5033;46.310;11.214;2023-04-16T09:35:16;18.00;98.00
9987;DHT22;5033;46.310;11.214;2023-04-16T09:37:54;17.90;96.30
9987;DHT22;5033;46.310;11.214;2023-04-16T09:40:23;17.90;96.10
9987;DHT22;5033;46.310;11.214;2023-04-16T09:42:51;18.20;96.30
9987;DHT22;5033;46.310;11.214;2023-04-16T09:45:19;18.50;95.70
9987;DHT22;5033;46.310;11.214;2023-04-16T09:47:46;18.60;95.60
9987;DHT22;5033;46.310;11.214;2023-04-16T09:50:15;18.60;94.50
9987;DHT22;5033;46.310;11.214;2023-04-16T09:52:43;18.50;94.80
9987;DHT22;5033;46.310;11.214;2023-04-16T09:55:11;18.50;94.50
9987;DHT22;5033;46.310;11.214;2023-04-16T09:57:38;18.40;93.20
9987;DHT22;5033;46.310;11.214;2023-04-16T10:00:07;18.50;93.20
9987;DHT22;5033;46.310;11.214;2023-04-16T10:02:35;18.40;91.30
9987;DHT22;5033;46.310;11.214;2023-04-16T10:05:06;18.50;92.20
9987;DHT22;5033;46.310;11.214;2023-04-16T10:07:34;18.50;92.20
9987;DHT22;5033;46.310;11.214;2023-04-16T10:10:02;18.40;91.00
9987;DHT22;5033;46.310;11.214;2023-04-16T10:12:31;18.40;89.70
9987;DHT22;5033;46.310;11.214;2023-04-16T10:14:58;18.40;89.40
9987;DHT22;5033;46.310;11.214;2023-04-16T10:17:26;18.50;90.50
9987;DHT22;5033;46.310;11.214;2023-04-16T10:19:54;18.60;88.30
9987;DHT22;5033;46.310;11.214;2023-04-16T10:22:22;18.80;90.30
9987;DHT22;5033;46.310;11.214;2023-04-16T10:24:50;18.90;88.20
9987;DHT22;5033;46.310;11.214;2023-04-16T10:27:18;19.00;90.20
9987;DHT22;5033;46.310;11.214;2023-04-16T10:29:48;19.20;89.30
9987;DHT22;5033;46.310;11.214;2023-04-16T10:32:16;19.20;86.40
9987;DHT22;5033;46.310;11.214;2023-04-16T10:34:46;19.10;87.00
9987;DHT22;5033;46.310;11.214;2023-04-16T10:37:14;19.20;88.20
9987;DHT22;5033;46.310;11.214;2023-04-16T10:39:42;18.80;83.80
9987;DHT22;5033;46.310;11.214;2023-04-16T10:42:11;18.40;86.80
9987;DHT22;5033;46.310;11.214;2023-04-16T10:44:38;18.20;86.50
9987;DHT22;5033;46.310;11.214;2023-04-16T10:47:11;18.20;86.60
9987;DHT22;5033;46.310;11.214;2023-04-16T10:49:38;18.10;86.70
9987;DHT22;5033;46.310;11.214;2023-04-16T10:52:09;17.80;88.50
9987;DHT22;5033;46.310;11.214;2023-04-16T10:54:38;17.70;88.10
9987;DHT22;5033;46.310;11.214;2023-04-16T10:57:06;17.90;89.20
9987;DHT22;5033;46.310;11.214;2023-04-16T10:59:35;18.40;88.10
9987;DHT22;5033;46.310;11.214;2023-04-16T11:02:06;18.80;86.00
9987;DHT22;5033;46.310;11.214;2023-04-16T11:04:36;18.60;88.50
9987;DHT22;5033;46.310;11.214;2023-04-16T11:07:06;18.50;87.90
9987;DHT22;5033;46.310;11.214;2023-04-16T11:09:54;18.30;87.20
9987;DHT22;5033;46.310;11.214;2023-04-16T11:12:23;18.50;88.50
9987;DHT22;5033;46.310;11.214;2023-04-16T11:14:53;18.30;85.20
9987;DHT22;5033;46.310;11.214;2023-04-16T11:17:20;18.40;86.00
9987;DHT22;5033;46.310;11.214;2023-04-16T11:19:49;18.60;85.50
9987;DHT22;5033;46.310;11.214;2023-04-16T11:22:17;18.50;84.70
9987;DHT22;5033;46.310;11.214;2023-04-16T11:24:44;18.60;82.80
9987;DHT22;5033;46.310;11.214;2023-04-16T11:27:12;19.00;84.40
9987;DHT22;5033;46.310;11.214;2023-04-16T11:29:39;19.50;82.50
9987;DHT22;5033;46.310;11.214;2023-04-16T11:32:07;19.80;80.60
9987;DHT22;5033;46.310;11.214;2023-04-16T11:34:34;19.90;79.80
9987;DHT22;5033;46.310;11.214;2023-04-16T11:37:10;19.50;78.00
9987;DHT22;5033;46.310;11.214;2023-04-16T11:39:50;18.80;75.60
9987;DHT22;5033;46.310;11.214;2023-04-16T11:42:21;18.30;78.20
9987;DHT22;5033;46.310;11.214;2023-04-16T11:44:52;17.90;77.80
9987;DHT22;5033;46.310;11.214;2023-04-16T11:47:19;17.80;79.40
9987;DHT22;5033;46.310;11.214;2023-04-16T11:49:46;17.80;80.10
9987;DHT22;5033;46.310;11.214;2023-04-16T11:52:24;17.80;80.40
9987;DHT22;5033;46.310;11.214;2023-04-16T11:54:51;18.00;81.40
9987;DHT22;5033;46.310;11.214;2023-04-16T11:57:23;18.10;80.90
9987;DHT22;5033;46.310;11.214;2023-04-16T11:59:51;18.40;81.40
9987;DHT22;5033;46.310;11.214;2023-04-16T12:02:33;18.50;82.60
9987;DHT22;5033;46.310;11.214;2023-04-16T12:05:01;18.60;79.80
9987;DHT22;5033;46.310;11.214;2023-04-16T12:07:30;18.60;79.20
9987;DHT22;5033;46.310;11.214;2023-04-16T12:10:07;18.50;79.90
9987;DHT22;5033;46.310;11.214;2023-04-16T12:12:34;18.50;82.40
9987;DHT22;5033;46.310;11.214;2023-04-16T12:15:02;18.40;82.00
9987;DHT22;5033;46.310;11.214;2023-04-16T12:17:30;18.40;82.20
9987;DHT22;5033;46.310;11.214;2023-04-16T12:19:58;18.50;82.50
9987;DHT22;5033;46.310;11.214;2023-04-16T12:22:31;18.60;80.20
9987;DHT22;5033;46.310;11.214;2023-04-16T12:25:00;18.60;78.70
9987;DHT22;5033;46.310;11.214;2023-04-16T12:27:40;18.60;78.30
9987;DHT22;5033;46.310;11.214;2023-04-16T12:30:08;19.10;81.50
9987;DHT22;5033;46.310;11.214;2023-04-16T12:32:35;19.10;79.80
9987;DHT22;5033;46.310;11.214;2023-04-16T12:35:03;19.40;79.40
9987;DHT22;5033;46.310;11.214;2023-04-16T12:37:31;19.90;77.50
9987;DHT22;5033;46.310;11.214;2023-04-16T12:39:59;20.20;77.90
9987;DHT22;5033;46.310;11.214;2023-04-16T12:42:27;20.30;78.20
9987;DHT22;5033;46.310;11.214;2023-04-16T12:45:00;20.30;77.10
9987;DHT22;5033;46.310;11.214;2023-04-16T12:47:27;20.40;78.10
9987;DHT22;5033;46.310;11.214;2023-04-16T12:49:55;20.70;79.50
9987;DHT22;5033;46.310;11.214;2023-04-16T12:52:22;20.60;77.20
9987;DHT22;5033;46.310;11.214;2023-04-16T12:54:51;20.50;73.50
9987;DHT22;5033;46.310;11.214;2023-04-16T12:57:18;20.20;75.90
9987;DHT22;5033;46.310;11.214;2023-04-16T12:59:45;20.30;76.40
9987;DHT22;5033;46.310;11.214;2023-04-16T13:02:12;20.00;76.50
9987;DHT22;5033;46.310;11.214;2023-04-16T13:04:39;19.70;77.30
9987;DHT22;5033;46.310;11.214;2023-04-16T13:07:06;19.60;76.70
9987;DHT22;5033;46.310;11.214;2023-04-16T13:09:33;19.30;74.10
9987;DHT22;5033;46.310;11.214;2023-04-16T13:12:01;19.30;77.60
9987;DHT22;5033;46.310;11.214;2023-04-16T13:14:28;19.60;77.20
9987;DHT22;5033;46.310;11.214;2023-04-16T13:16:55;19.50;75.50
9987;DHT22;5033;46.310;11.214;2023-04-16T13:19:22;19.40;76.70
9987;DHT22;5033;46.310;11.214;2023-04-16T13:21:49;19.20;75.90
9987;DHT22;5033;46.310;11.214;2023-04-16T13:24:16;18.90;75.80
9987;DHT22;5033;46.310;11.214;2023-04-16T13:26:43;18.70;76.20
9987;DHT22;5033;46.310;11.214;2023-04-16T13:29:12;18.60;77.80
9987;DHT22;5033;46.310;11.214;2023-04-16T13:31:39;18.40;77.60
9987;DHT22;5033;46.310;11.214;2023-04-16T13:34:06;18.50;78.70
9987;DHT22;5033;46.310;11.214;2023-04-16T13:36:33;18.50;78.40
9987;DHT22;5033;46.310;11.214;2023-04-16T13:39:00;18.70;77.70
9987;DHT22;5033;46.310;11.214;2023-04-16T13:41:29;18.70;77.50
9987;DHT22;5033;46.310;11.214;2023-04-16T13:43:56;18.70;77.30
9987;DHT22;5033;46.310;11.214;2023-04-16T13:46:24;18.70;77.20
9987;DHT22;5033;46.310;11.214;2023-04-16T13:48:51;18.60;77.40
9987;DHT22;5033;46.310;11.214;2023-04-16T13:51:18;18.60;77.70
9987;DHT22;5033;46.310;11.214;2023-04-16T13:53:46;18.50;77.50
9987;DHT22;5033;46.310;11.214;2023-04-16T13:56:13;18.30;78.20
9987;DHT22;5033;46.310;11.214;2023-04-16T13:58:40;18.20;78.20
9987;DHT22;5033;46.310;11.214;2023-04-16T14:01:08;18.20;78.20
9987;DHT22;5033;46.310;11.214;2023-04-16T14:03:36;18.10;77.60
9987;DHT22;5033;46.310;11.214;2023-04-16T14:06:05;18.00;76.30
9987;DHT22;5033;46.310;11.214;2023-04-16T14:08:32;17.90;77.90
9987;DHT22;5033;46.310;11.214;2023-04-16T14:10:59;17.80;77.30
9987;DHT22;5033;46.310;11.214;2023-04-16T14:13:26;17.70;77.10
9987;DHT22;5033;46.310;11.214;2023-04-16T14:15:53;17.60;77.80
9987;DHT22;5033;46.310;11.214;2023-04-16T14:18:21;17.50;78.30
9987;DHT22;5033;46.310;11.214;2023-04-16T14:20:49;17.50;78.30
9987;DHT22;5033;46.310;11.214;2023-04-16T14:23:16;17.50;78.20
9987;DHT22;5033;46.310;11.214;2023-04-16T14:25:43;17.40;77.70
9987;DHT22;5033;46.310;11.214;2023-04-16T14:28:10;17.40;78.20
9987;DHT22;5033;46.310;11.214;2023-04-16T14:30:37;17.40;78.60
9987;DHT22;5033;46.310;11.214;2023-04-16T14:33:04;17.30;78.80
9987;DHT22;5033;46.310;11.214;2023-04-16T14:35:31;17.20;78.40
9987;DHT22;5033;46.310;11.214;2023-04-16T14:38:00;17.20;79.10
9987;DHT22;5033;46.310;11.214;2023-04-16T14:40:27;17.10;78.90
9987;DHT22;5033;46.310;11.214;2023-04-16T14:42:53;17.00;79.30
9987;DHT22;5033;46.310;11.214;2023-04-16T14:45:20;16.90;79.30
9987;DHT22;5033;46.310;11.214;2023-04-16T14:47:47;16.90;79.90
9987;DHT22;5033;46.310;11.214;2023-04-16T14:50:15;16.90;78.90
9987;DHT22;5033;46.310;11.214;2023-04-16T14:52:42;16.90;78.90
9987;DHT22;5033;46.310;11.214;2023-04-16T14:55:10;16.90;79.50
9987;DHT22;5033;46.310;11.214;2023-04-16T14:57:37;16.80;80.00
9987;DHT22;5033;46.310;11.214;2023-04-16T15:00:07;16.80;79.10
9987;DHT22;5033;46.310;11.214;2023-04-16T15:02:35;16.80;80.20
9987;DHT22;5033;46.310;11.214;2023-04-16T15:05:02;16.80;80.20
9987;DHT22;5033;46.310;11.214;2023-04-16T15:07:29;16.70;80.80
9987;DHT22;5033;46.310;11.214;2023-04-16T15:09:57;16.70;80.40
9987;DHT22;5033;46.310;11.214;2023-04-16T15:12:25;16.70;81.00
9987;DHT22;5033;46.310;11.214;2023-04-16T15:14:52;16.60;80.30
9987;DHT22;5033;46.310;11.214;2023-04-16T15:17:19;16.50;80.20
9987;DHT22;5033;46.310;11.214;2023-04-16T15:19:46;16.50;80.90
9987;DHT22;5033;46.310;11.214;2023-04-16T15:22:13;16.50;80.80
9987;DHT22;5033;46.310;11.214;2023-04-16T15:24:41;16.50;80.80
9987;DHT22;5033;46.310;11.214;2023-04-16T15:27:08;16.60;81.00
9987;DHT22;5033;46.310;11.214;2023-04-16T15:29:37;16.60;80.80
9987;DHT22;5033;46.310;11.214;2023-04-16T15:32:04;16.50;81.20
9987;DHT22;5033;46.310;11.214;2023-04-16T15:34:32;16.40;82.60
9987;DHT22;5033;46.310;11.214;2023-04-16T15:36:58;16.30;81.80
9987;DHT22;5033;46.310;11.214;2023-04-16T15:39:25;16.20;82.40
9987;DHT22;5033;46.310;11.214;2023-04-16T15:41:53;16.20;81.80
9987;DHT22;5033;46.310;11.214;2023-04-16T15:44:20;16.10;81.90
9987;DHT22;5033;46.310;11.214;2023-04-16T15:46:49;16.00;82.10
9987;DHT22;5033;46.310;11.214;2023-04-16T15:49:16;16.00;82.60
9987;DHT22;5033;46.310;11.214;2023-04-16T15:51:43;15.90;83.20
9987;DHT22;5033;46.310;11.214;2023-04-16T15:54:09;15.90;83.00
9987;DHT22;5033;46.310;11.214;2023-04-16T15:56:36;15.80;83.00